KBIX/BIX METAR and TAF weather

Enter ICAO airport designator
Station Type Date Time Source
KBIX METAR 2020/11/28 20:01 UTC NOAA

KBIX 282001Z AUTO 04007KT 10SM BKN012 BKN050 18/16 A3006 RMK AO2 CIG 012V050 SLP182


Station Type Date Time Source
KBIX Decoded METAR 2020/11/28 20:01 UTC NOAA

Keesler Air Force Base / Biloxi, MS, United States (KBIX) 30-25N 088-55W
Nov 28, 2020 - 03:01 PM EST / 2020.11.28 2001 UTC
Wind: from the NE (040 degrees) at 8 MPH (7 KT):0
Visibility: 10 mile(s):0
Sky conditions: mostly cloudy
Temperature: 64 F (18 C)
Dew Point: 60 F (16 C)
Relative Humidity: 88%
Pressure (altimeter): 30.06 in. Hg (1017 hPa)
ob: KBIX 282001Z AUTO 04007KT 10SM BKN012 BKN050 18/16 A3006 RMK AO2 CIG 012V050 SLP182
cycle: 20

Station Type Date Time Source
KBIX TAF 2020/11/27 16:41 UTC NOAA

TAF KBIX 271600Z 2716/2822 VRB06KT 9999 SCT050 BKN100 QNH3007INS
BECMG 2720/2721 VRB06KT 8000 BR SCT011 QNH3004INS
BECMG 2803/2804 VRB06KT 4800 -SHRA SCT004 QNH3006INS
TEMPO 2808/2815 22020G25KT 4800 -TSRA SCT012CB OVC019
BECMG 2816/2817 VRB06KT 4800 BR BKN012 QNH3007INS
BECMG 2821/2822 VRB06KT 8000 -SHRA SCT004 QNH3005INS LAST NO
AMDS AFT 2716 NEXT 3010 TX21/2720Z TN19/2813Z

Example: see airport list